sensor_id;sensor_type;location;lat;lon;timestamp;temperature;humidity
27697;DHT22;15105;56.514;21.002;2022-07-04T00:01:43;17.60;99.90
27697;DHT22;15105;56.514;21.002;2022-07-04T00:04:10;17.60;99.90
27697;DHT22;15105;56.514;21.002;2022-07-04T00:06:37;17.70;99.90
27697;DHT22;15105;56.514;21.002;2022-07-04T00:09:04;17.60;99.90
27697;DHT22;15105;56.514;21.002;2022-07-04T00:11:31;17.60;99.90
27697;DHT22;15105;56.514;21.002;2022-07-04T00:13:58;17.60;99.90
27697;DHT22;15105;56.514;21.002;2022-07-04T00:16:25;17.60;99.90
27697;DHT22;15105;56.514;21.002;2022-07-04T00:18:53;17.60;99.90
27697;DHT22;15105;56.514;21.002;2022-07-04T00:21:20;17.60;99.90
27697;DHT22;15105;56.514;21.002;2022-07-04T00:23:47;17.60;99.90
27697;DHT22;15105;56.514;21.002;2022-07-04T00:26:15;17.60;99.90
27697;DHT22;15105;56.514;21.002;2022-07-04T00:28:42;17.50;99.90
27697;DHT22;15105;56.514;21.002;2022-07-04T00:31:09;17.50;99.90
27697;DHT22;15105;56.514;21.002;2022-07-04T00:33:36;17.50;99.90
27697;DHT22;15105;56.514;21.002;2022-07-04T00:36:04;17.50;99.90
27697;DHT22;15105;56.514;21.002;2022-07-04T00:38:31;17.40;99.90
27697;DHT22;15105;56.514;21.002;2022-07-04T00:40:58;17.40;99.90
27697;DHT22;15105;56.514;21.002;2022-07-04T00:43:26;17.50;99.90
27697;DHT22;15105;56.514;21.002;2022-07-04T00:45:54;17.40;99.90
27697;DHT22;15105;56.514;21.002;2022-07-04T00:48:21;17.50;99.90
27697;DHT22;15105;56.514;21.002;2022-07-04T00:50:49;17.50;99.90
27697;DHT22;15105;56.514;21.002;2022-07-04T00:53:18;17.50;99.90
27697;DHT22;15105;56.514;21.002;2022-07-04T00:55:46;17.40;99.90
27697;DHT22;15105;56.514;21.002;2022-07-04T00:58:13;17.40;99.90
27697;DHT22;15105;56.514;21.002;2022-07-04T01:00:41;17.30;99.90
27697;DHT22;15105;56.514;21.002;2022-07-04T01:03:08;17.30;99.90
27697;DHT22;15105;56.514;21.002;2022-07-04T01:05:35;17.30;99.90
27697;DHT22;15105;56.514;21.002;2022-07-04T01:08:03;17.30;99.90
27697;DHT22;15105;56.514;21.002;2022-07-04T01:10:31;17.30;99.90
27697;DHT22;15105;56.514;21.002;2022-07-04T01:12:58;17.20;99.90
27697;DHT22;15105;56.514;21.002;2022-07-04T01:15:25;17.20;99.90
27697;DHT22;15105;56.514;21.002;2022-07-04T01:17:52;17.20;99.90
27697;DHT22;15105;56.514;21.002;2022-07-04T01:20:19;17.10;99.90
27697;DHT22;15105;56.514;21.002;2022-07-04T01:22:46;17.20;99.90
27697;DHT22;15105;56.514;21.002;2022-07-04T01:25:13;17.10;99.90
27697;DHT22;15105;56.514;21.002;2022-07-04T01:27:41;17.10;99.90
27697;DHT22;15105;56.514;21.002;2022-07-04T01:30:08;17.10;99.90
27697;DHT22;15105;56.514;21.002;2022-07-04T01:32:36;17.10;99.90
27697;DHT22;15105;56.514;21.002;2022-07-04T01:35:03;17.10;99.90
27697;DHT22;15105;56.514;21.002;2022-07-04T01:37:30;17.10;99.90
27697;DHT22;15105;56.514;21.002;2022-07-04T01:39:57;17.10;99.90
27697;DHT22;15105;56.514;21.002;2022-07-04T01:42:24;17.10;99.90
27697;DHT22;15105;56.514;21.002;2022-07-04T01:44:51;17.00;99.90
27697;DHT22;15105;56.514;21.002;2022-07-04T01:47:18;17.00;99.90
27697;DHT22;15105;56.514;21.002;2022-07-04T01:49:46;17.00;99.90
27697;DHT22;15105;56.514;21.002;2022-07-04T01:52:13;17.00;99.90
27697;DHT22;15105;56.514;21.002;2022-07-04T01:54:42;17.00;99.90
27697;DHT22;15105;56.514;21.002;2022-07-04T01:57:09;16.90;99.90
27697;DHT22;15105;56.514;21.002;2022-07-04T01:59:36;16.90;99.90
27697;DHT22;15105;56.514;21.002;2022-07-04T02:02:22;16.90;99.90
27697;DHT22;15105;56.514;21.002;2022-07-04T02:04:49;16.90;99.90
27697;DHT22;15105;56.514;21.002;2022-07-04T02:07:17;16.90;99.90
27697;DHT22;15105;56.514;21.002;2022-07-04T02:09:44;16.90;99.90
27697;DHT22;15105;56.514;21.002;2022-07-04T02:12:12;16.80;99.90
27697;DHT22;15105;56.514;21.002;2022-07-04T02:14:57;16.90;99.90
27697;DHT22;15105;56.514;21.002;2022-07-04T02:17:25;16.80;99.90
27697;DHT22;15105;56.514;21.002;2022-07-04T02:19:52;16.80;99.90
27697;DHT22;15105;56.514;21.002;2022-07-04T02:22:19;16.80;99.90
27697;DHT22;15105;56.514;21.002;2022-07-04T02:24:46;16.80;99.90
27697;DHT22;15105;56.514;21.002;2022-07-04T02:27:14;16.80;99.90
27697;DHT22;15105;56.514;21.002;2022-07-04T02:29:42;16.80;99.90
27697;DHT22;15105;56.514;21.002;2022-07-04T02:32:09;16.80;99.90
27697;DHT22;15105;56.514;21.002;2022-07-04T02:34:36;16.80;99.90
27697;DHT22;15105;56.514;21.002;2022-07-04T02:37:03;16.80;99.90
27697;DHT22;15105;56.514;21.002;2022-07-04T02:39:31;16.70;99.90
27697;DHT22;15105;56.514;21.002;2022-07-04T02:41:57;16.70;99.90
27697;DHT22;15105;56.514;21.002;2022-07-04T02:44:25;16.70;99.90
27697;DHT22;15105;56.514;21.002;2022-07-04T02:46:52;16.70;99.90
27697;DHT22;15105;56.514;21.002;2022-07-04T02:49:20;16.70;99.90
27697;DHT22;15105;56.514;21.002;2022-07-04T02:51:47;16.70;99.90
27697;DHT22;15105;56.514;21.002;2022-07-04T02:54:15;16.70;99.90
27697;DHT22;15105;56.514;21.002;2022-07-04T02:56:42;16.70;99.90
27697;DHT22;15105;56.514;21.002;2022-07-04T02:59:09;16.70;99.90
27697;DHT22;15105;56.514;21.002;2022-07-04T03:01:36;16.70;99.90
27697;DHT22;15105;56.514;21.002;2022-07-04T03:04:04;16.70;99.90
27697;DHT22;15105;56.514;21.002;2022-07-04T03:06:31;16.80;99.90
27697;DHT22;15105;56.514;21.002;2022-07-04T03:08:58;16.80;99.90
27697;DHT22;15105;56.514;21.002;2022-07-04T03:11:25;16.80;99.90
27697;DHT22;15105;56.514;21.002;2022-07-04T03:13:52;16.90;99.90
27697;DHT22;15105;56.514;21.002;2022-07-04T03:16:19;16.90;99.90
27697;DHT22;15105;56.514;21.002;2022-07-04T03:18:46;16.90;99.90
27697;DHT22;15105;56.514;21.002;2022-07-04T03:21:13;16.90;99.90
27697;DHT22;15105;56.514;21.002;2022-07-04T03:23:40;16.90;99.90
27697;DHT22;15105;56.514;21.002;2022-07-04T03:26:07;16.90;99.90
27697;DHT22;15105;56.514;21.002;2022-07-04T03:28:34;17.00;99.90
27697;DHT22;15105;56.514;21.002;2022-07-04T03:31:01;17.00;99.90
27697;DHT22;15105;56.514;21.002;2022-07-04T03:33:28;17.00;99.90
27697;DHT22;15105;56.514;21.002;2022-07-04T03:35:55;17.00;99.90
27697;DHT22;15105;56.514;21.002;2022-07-04T03:38:22;17.00;99.90
27697;DHT22;15105;56.514;21.002;2022-07-04T03:40:49;17.10;99.90
27697;DHT22;15105;56.514;21.002;2022-07-04T03:43:16;17.20;99.90
27697;DHT22;15105;56.514;21.002;2022-07-04T03:45:43;17.20;99.90
27697;DHT22;15105;56.514;21.002;2022-07-04T03:48:10;17.30;99.90
27697;DHT22;15105;56.514;21.002;2022-07-04T03:50:38;17.70;99.90
27697;DHT22;15105;56.514;21.002;2022-07-04T03:53:05;18.50;99.90
27697;DHT22;15105;56.514;21.002;2022-07-04T03:55:32;19.60;99.90
27697;DHT22;15105;56.514;21.002;2022-07-04T03:57:59;20.30;99.90
27697;DHT22;15105;56.514;21.002;2022-07-04T04:00:26;21.00;99.90
27697;DHT22;15105;56.514;21.002;2022-07-04T04:02:54;21.70;99.90
27697;DHT22;15105;56.514;21.002;2022-07-04T04:05:21;22.20;99.90
27697;DHT22;15105;56.514;21.002;2022-07-04T04:07:55;22.70;99.90
27697;DHT22;15105;56.514;21.002;2022-07-04T04:10:24;23.20;99.90
27697;DHT22;15105;56.514;21.002;2022-07-04T04:12:51;23.30;99.90
27697;DHT22;15105;56.514;21.002;2022-07-04T04:15:19;23.60;99.90
27697;DHT22;15105;56.514;21.002;2022-07-04T04:17:46;23.90;99.90
27697;DHT22;15105;56.514;21.002;2022-07-04T04:20:13;24.00;99.90
27697;DHT22;15105;56.514;21.002;2022-07-04T04:22:41;24.40;99.90
27697;DHT22;15105;56.514;21.002;2022-07-04T04:25:08;24.90;99.90
27697;DHT22;15105;56.514;21.002;2022-07-04T04:27:36;25.10;99.90
27697;DHT22;15105;56.514;21.002;2022-07-04T04:30:04;25.50;99.90
27697;DHT22;15105;56.514;21.002;2022-07-04T04:32:31;26.20;99.90
27697;DHT22;15105;56.514;21.002;2022-07-04T04:34:58;26.60;99.90
27697;DHT22;15105;56.514;21.002;2022-07-04T04:37:25;27.00;99.90
27697;DHT22;15105;56.514;21.002;2022-07-04T04:39:52;27.20;99.90
27697;DHT22;15105;56.514;21.002;2022-07-04T04:42:19;27.00;99.90
27697;DHT22;15105;56.514;21.002;2022-07-04T04:44:46;26.90;99.90
27697;DHT22;15105;56.514;21.002;2022-07-04T04:47:13;26.70;99.90
27697;DHT22;15105;56.514;21.002;2022-07-04T04:49:41;26.50;99.90
27697;DHT22;15105;56.514;21.002;2022-07-04T04:52:08;26.30;99.90
27697;DHT22;15105;56.514;21.002;2022-07-04T04:54:36;26.00;99.90
27697;DHT22;15105;56.514;21.002;2022-07-04T04:57:03;25.90;99.90
27697;DHT22;15105;56.514;21.002;2022-07-04T04:59:31;25.90;99.90
27697;DHT22;15105;56.514;21.002;2022-07-04T05:01:59;25.80;99.90
27697;DHT22;15105;56.514;21.002;2022-07-04T05:04:26;25.80;99.90
27697;DHT22;15105;56.514;21.002;2022-07-04T05:06:53;25.90;99.90
27697;DHT22;15105;56.514;21.002;2022-07-04T05:09:20;26.10;99.90
27697;DHT22;15105;56.514;21.002;2022-07-04T05:11:48;26.30;99.90
27697;DHT22;15105;56.514;21.002;2022-07-04T05:14:15;26.50;99.90
27697;DHT22;15105;56.514;21.002;2022-07-04T05:16:42;26.50;99.90
27697;DHT22;15105;56.514;21.002;2022-07-04T05:19:10;26.40;99.90
27697;DHT22;15105;56.514;21.002;2022-07-04T05:21:37;26.40;99.90
27697;DHT22;15105;56.514;21.002;2022-07-04T05:24:05;26.30;99.90
27697;DHT22;15105;56.514;21.002;2022-07-04T05:26:32;26.30;99.90
27697;DHT22;15105;56.514;21.002;2022-07-04T05:28:59;26.30;99.90
27697;DHT22;15105;56.514;21.002;2022-07-04T05:31:26;25.90;99.90
27697;DHT22;15105;56.514;21.002;2022-07-04T05:33:54;25.50;99.90
27697;DHT22;15105;56.514;21.002;2022-07-04T05:36:25;25.20;99.90
27697;DHT22;15105;56.514;21.002;2022-07-04T05:38:56;24.70;99.90
27697;DHT22;15105;56.514;21.002;2022-07-04T05:41:24;24.40;99.90
27697;DHT22;15105;56.514;21.002;2022-07-04T05:43:51;24.10;99.90
27697;DHT22;15105;56.514;21.002;2022-07-04T05:46:24;23.90;99.90
27697;DHT22;15105;56.514;21.002;2022-07-04T05:48:52;23.70;99.90
27697;DHT22;15105;56.514;21.002;2022-07-04T05:51:19;23.50;99.90
27697;DHT22;15105;56.514;21.002;2022-07-04T05:53:46;23.30;99.90
27697;DHT22;15105;56.514;21.002;2022-07-04T05:56:13;23.20;99.90
27697;DHT22;15105;56.514;21.002;2022-07-04T05:58:40;23.00;99.90
27697;DHT22;15105;56.514;21.002;2022-07-04T06:01:08;22.90;99.90
27697;DHT22;15105;56.514;21.002;2022-07-04T06:03:35;22.80;99.90
27697;DHT22;15105;56.514;21.002;2022-07-04T06:06:05;22.70;99.90
27697;DHT22;15105;56.514;21.002;2022-07-04T06:08:32;22.60;99.90
27697;DHT22;15105;56.514;21.002;2022-07-04T06:10:59;22.60;99.90
27697;DHT22;15105;56.514;21.002;2022-07-04T06:13:26;22.60;99.90
27697;DHT22;15105;56.514;21.002;2022-07-04T06:15:54;22.40;99.90
27697;DHT22;15105;56.514;21.002;2022-07-04T06:18:21;22.20;99.90
27697;DHT22;15105;56.514;21.002;2022-07-04T06:20:48;22.10;99.90
27697;DHT22;15105;56.514;21.002;2022-07-04T06:23:15;22.10;99.90
27697;DHT22;15105;56.514;21.002;2022-07-04T06:25:42;22.00;99.90
27697;DHT22;15105;56.514;21.002;2022-07-04T06:28:09;22.00;99.90
27697;DHT22;15105;56.514;21.002;2022-07-04T06:30:57;22.00;99.90
27697;DHT22;15105;56.514;21.002;2022-07-04T06:33:24;21.90;99.90
27697;DHT22;15105;56.514;21.002;2022-07-04T06:35:51;22.00;99.90
27697;DHT22;15105;56.514;21.002;2022-07-04T06:38:25;22.00;99.90
27697;DHT22;15105;56.514;21.002;2022-07-04T06:40:57;22.10;99.90
27697;DHT22;15105;56.514;21.002;2022-07-04T06:43:25;22.10;99.90
27697;DHT22;15105;56.514;21.002;2022-07-04T06:45:52;22.10;99.90
27697;DHT22;15105;56.514;21.002;2022-07-04T06:48:20;22.10;99.90
27697;DHT22;15105;56.514;21.002;2022-07-04T06:50:47;22.20;99.90
27697;DHT22;15105;56.514;21.002;2022-07-04T06:53:14;22.30;99.90
27697;DHT22;15105;56.514;21.002;2022-07-04T06:55:42;22.40;99.90
27697;DHT22;15105;56.514;21.002;2022-07-04T06:58:10;22.50;99.90
27697;DHT22;15105;56.514;21.002;2022-07-04T07:00:37;22.60;99.90
27697;DHT22;15105;56.514;21.002;2022-07-04T07:03:08;22.60;99.90
27697;DHT22;15105;56.514;21.002;2022-07-04T07:05:35;22.70;99.90
27697;DHT22;15105;56.514;21.002;2022-07-04T07:08:23;22.80;99.90
27697;DHT22;15105;56.514;21.002;2022-07-04T07:10:50;22.90;99.90
27697;DHT22;15105;56.514;21.002;2022-07-04T07:13:18;23.00;99.90
27697;DHT22;15105;56.514;21.002;2022-07-04T07:15:45;23.20;99.90
27697;DHT22;15105;56.514;21.002;2022-07-04T07:18:15;23.40;99.90
27697;DHT22;15105;56.514;21.002;2022-07-04T07:20:43;23.40;99.90
27697;DHT22;15105;56.514;21.002;2022-07-04T07:23:10;23.40;99.90
27697;DHT22;15105;56.514;21.002;2022-07-04T07:25:37;23.50;99.90
27697;DHT22;15105;56.514;21.002;2022-07-04T07:28:04;23.60;99.90
27697;DHT22;15105;56.514;21.002;2022-07-04T07:30:31;23.60;99.90
27697;DHT22;15105;56.514;21.002;2022-07-04T07:32:58;23.50;99.90
27697;DHT22;15105;56.514;21.002;2022-07-04T07:35:25;23.50;99.90
27697;DHT22;15105;56.514;21.002;2022-07-04T07:37:52;23.60;99.90
27697;DHT22;15105;56.514;21.002;2022-07-04T07:40:20;23.60;99.90
27697;DHT22;15105;56.514;21.002;2022-07-04T07:42:47;23.70;99.90
27697;DHT22;15105;56.514;21.002;2022-07-04T07:45:14;24.00;99.90
27697;DHT22;15105;56.514;21.002;2022-07-04T07:47:41;24.30;99.90
27697;DHT22;15105;56.514;21.002;2022-07-04T07:50:08;24.30;99.90
27697;DHT22;15105;56.514;21.002;2022-07-04T07:52:36;24.30;99.90
27697;DHT22;15105;56.514;21.002;2022-07-04T07:55:04;24.30;99.90
27697;DHT22;15105;56.514;21.002;2022-07-04T07:57:31;24.40;99.90
27697;DHT22;15105;56.514;21.002;2022-07-04T07:59:58;24.60;99.90
27697;DHT22;15105;56.514;21.002;2022-07-04T08:02:25;24.80;99.90
27697;DHT22;15105;56.514;21.002;2022-07-04T08:05:11;25.10;99.90
27697;DHT22;15105;56.514;21.002;2022-07-04T08:07:39;25.50;99.90
27697;DHT22;15105;56.514;21.002;2022-07-04T08:10:09;25.60;99.90
27697;DHT22;15105;56.514;21.002;2022-07-04T08:12:36;25.70;99.90
27697;DHT22;15105;56.514;21.002;2022-07-04T08:15:04;25.80;99.90
27697;DHT22;15105;56.514;21.002;2022-07-04T08:17:34;25.80;99.90
27697;DHT22;15105;56.514;21.002;2022-07-04T08:20:03;25.40;99.90
27697;DHT22;15105;56.514;21.002;2022-07-04T08:22:30;25.30;99.90
27697;DHT22;15105;56.514;21.002;2022-07-04T08:24:58;25.30;99.90
27697;DHT22;15105;56.514;21.002;2022-07-04T08:27:25;25.20;99.90
27697;DHT22;15105;56.514;21.002;2022-07-04T08:29:59;25.10;99.90
27697;DHT22;15105;56.514;21.002;2022-07-04T08:32:26;25.50;99.90
27697;DHT22;15105;56.514;21.002;2022-07-04T08:34:53;25.90;99.90
27697;DHT22;15105;56.514;21.002;2022-07-04T08:37:22;26.10;99.90
27697;DHT22;15105;56.514;21.002;2022-07-04T08:39:53;26.20;99.90
27697;DHT22;15105;56.514;21.002;2022-07-04T08:42:21;26.40;99.90
27697;DHT22;15105;56.514;21.002;2022-07-04T08:44:51;26.60;99.90
27697;DHT22;15105;56.514;21.002;2022-07-04T08:47:23;26.70;99.90
27697;DHT22;15105;56.514;21.002;2022-07-04T08:49:58;26.70;99.90
27697;DHT22;15105;56.514;21.002;2022-07-04T08:52:35;26.70;99.90
27697;DHT22;15105;56.514;21.002;2022-07-04T08:55:10;26.80;99.90
27697;DHT22;15105;56.514;21.002;2022-07-04T08:57:56;26.90;99.90
27697;DHT22;15105;56.514;21.002;2022-07-04T09:00:43;26.70;99.90
27697;DHT22;15105;56.514;21.002;2022-07-04T09:03:10;26.70;99.90
27697;DHT22;15105;56.514;21.002;2022-07-04T09:05:38;26.40;99.90
27697;DHT22;15105;56.514;21.002;2022-07-04T09:08:08;26.40;99.90
27697;DHT22;15105;56.514;21.002;2022-07-04T09:10:34;26.50;99.90
27697;DHT22;15105;56.514;21.002;2022-07-04T09:13:04;26.40;99.90
27697;DHT22;15105;56.514;21.002;2022-07-04T09:15:51;26.30;99.90
27697;DHT22;15105;56.514;21.002;2022-07-04T09:18:32;26.50;99.90
27697;DHT22;15105;56.514;21.002;2022-07-04T09:21:02;26.50;99.90
27697;DHT22;15105;56.514;21.002;2022-07-04T09:23:32;26.40;99.90
27697;DHT22;15105;56.514;21.002;2022-07-04T09:26:13;26.40;99.90
27697;DHT22;15105;56.514;21.002;2022-07-04T09:29:13;26.50;99.90
27697;DHT22;15105;56.514;21.002;2022-07-04T09:31:40;26.20;99.90
27697;DHT22;15105;56.514;21.002;2022-07-04T09:34:08;26.10;99.90
27697;DHT22;15105;56.514;21.002;2022-07-04T09:36:40;26.00;99.90
27697;DHT22;15105;56.514;21.002;2022-07-04T09:39:20;26.10;99.90
27697;DHT22;15105;56.514;21.002;2022-07-04T09:41:59;26.10;99.90
27697;DHT22;15105;56.514;21.002;2022-07-04T09:44:44;26.20;99.90
27697;DHT22;15105;56.514;21.002;2022-07-04T09:47:27;26.20;99.90
27697;DHT22;15105;56.514;21.002;2022-07-04T09:52:31;26.20;99.90
27697;DHT22;15105;56.514;21.002;2022-07-04T09:55:00;26.20;99.90
27697;DHT22;15105;56.514;21.002;2022-07-04T09:57:49;26.30;99.90
27697;DHT22;15105;56.514;21.002;2022-07-04T10:00:22;26.30;99.90
27697;DHT22;15105;56.514;21.002;2022-07-04T10:02:50;26.30;99.90
27697;DHT22;15105;56.514;21.002;2022-07-04T10:05:23;26.20;99.90
27697;DHT22;15105;56.514;21.002;2022-07-04T10:07:51;25.90;99.90
27697;DHT22;15105;56.514;21.002;2022-07-04T10:12:59;25.80;99.90
27697;DHT22;15105;56.514;21.002;2022-07-04T10:15:27;25.80;99.90
27697;DHT22;15105;56.514;21.002;2022-07-04T10:17:54;25.60;99.90
27697;DHT22;15105;56.514;21.002;2022-07-04T10:20:21;25.70;99.90
27697;DHT22;15105;56.514;21.002;2022-07-04T10:22:48;25.90;99.90
27697;DHT22;15105;56.514;21.002;2022-07-04T10:25:16;25.90;99.90
27697;DHT22;15105;56.514;21.002;2022-07-04T10:27:43;25.90;99.90
27697;DHT22;15105;56.514;21.002;2022-07-04T10:30:14;25.80;99.90
27697;DHT22;15105;56.514;21.002;2022-07-04T10:32:44;25.80;99.90
27697;DHT22;15105;56.514;21.002;2022-07-04T10:35:13;26.00;99.90
27697;DHT22;15105;56.514;21.002;2022-07-04T10:38:01;26.10;99.90
27697;DHT22;15105;56.514;21.002;2022-07-04T10:46:43;26.10;99.90
27697;DHT22;15105;56.514;21.002;2022-07-04T10:54:27;25.90;99.90
27697;DHT22;15105;56.514;21.002;2022-07-04T10:57:11;25.80;99.90
27697;DHT22;15105;56.514;21.002;2022-07-04T11:02:29;25.70;99.90
27697;DHT22;15105;56.514;21.002;2022-07-04T11:10:24;25.70;99.90
27697;DHT22;15105;56.514;21.002;2022-07-04T11:20:32;25.80;99.90
27697;DHT22;15105;56.514;21.002;2022-07-04T11:23:13;25.70;99.90
27697;DHT22;15105;56.514;21.002;2022-07-04T11:25:45;25.70;99.90
27697;DHT22;15105;56.514;21.002;2022-07-04T11:28:22;25.70;99.90
27697;DHT22;15105;56.514;21.002;2022-07-04T11:31:13;25.60;99.90
27697;DHT22;15105;56.514;21.002;2022-07-04T11:33:42;25.50;99.90
27697;DHT22;15105;56.514;21.002;2022-07-04T11:36:17;25.50;99.90
27697;DHT22;15105;56.514;21.002;2022-07-04T11:38:49;25.50;99.90
27697;DHT22;15105;56.514;21.002;2022-07-04T11:41:17;25.70;99.90
27697;DHT22;15105;56.514;21.002;2022-07-04T11:44:04;25.50;99.90
27697;DHT22;15105;56.514;21.002;2022-07-04T11:47:11;25.50;99.90
27697;DHT22;15105;56.514;21.002;2022-07-04T11:52:12;25.50;99.90
27697;DHT22;15105;56.514;21.002;2022-07-04T11:54:41;25.50;99.90
27697;DHT22;15105;56.514;21.002;2022-07-04T11:57:21;25.50;99.90
27697;DHT22;15105;56.514;21.002;2022-07-04T12:00:18;25.30;99.90
27697;DHT22;15105;56.514;21.002;2022-07-04T12:02:47;25.20;99.90
27697;DHT22;15105;56.514;21.002;2022-07-04T12:05:16;25.30;99.90
27697;DHT22;15105;56.514;21.002;2022-07-04T12:07:46;25.20;99.90
27697;DHT22;15105;56.514;21.002;2022-07-04T12:10:34;25.20;99.90
27697;DHT22;15105;56.514;21.002;2022-07-04T12:13:03;25.20;99.90
27697;DHT22;15105;56.514;21.002;2022-07-04T12:15:40;25.20;99.90
27697;DHT22;15105;56.514;21.002;2022-07-04T12:18:26;25.20;99.90
27697;DHT22;15105;56.514;21.002;2022-07-04T12:21:12;25.30;99.90
27697;DHT22;15105;56.514;21.002;2022-07-04T12:23:39;25.20;99.90
27697;DHT22;15105;56.514;21.002;2022-07-04T12:26:28;25.00;99.90
27697;DHT22;15105;56.514;21.002;2022-07-04T12:28:55;25.00;99.90
27697;DHT22;15105;56.514;21.002;2022-07-04T12:31:43;25.20;99.90
27697;DHT22;15105;56.514;21.002;2022-07-04T12:34:15;25.10;99.90
27697;DHT22;15105;56.514;21.002;2022-07-04T12:36:49;25.10;99.90
27697;DHT22;15105;56.514;21.002;2022-07-04T12:39:37;25.00;99.90
27697;DHT22;15105;56.514;21.002;2022-07-04T12:42:16;24.90;99.90
27697;DHT22;15105;56.514;21.002;2022-07-04T12:44:44;24.90;99.90
27697;DHT22;15105;56.514;21.002;2022-07-04T12:47:14;25.00;99.90
27697;DHT22;15105;56.514;21.002;2022-07-04T12:49:58;25.00;99.90
27697;DHT22;15105;56.514;21.002;2022-07-04T12:52:29;24.80;99.90
27697;DHT22;15105;56.514;21.002;2022-07-04T12:55:12;24.70;99.90
27697;DHT22;15105;56.514;21.002;2022-07-04T12:57:41;24.80;99.90
27697;DHT22;15105;56.514;21.002;2022-07-04T13:00:08;24.80;99.90
27697;DHT22;15105;56.514;21.002;2022-07-04T13:02:55;24.80;99.90
27697;DHT22;15105;56.514;21.002;2022-07-04T13:05:23;24.80;99.90
27697;DHT22;15105;56.514;21.002;2022-07-04T13:07:50;24.70;99.90
27697;DHT22;15105;56.514;21.002;2022-07-04T13:10:17;24.60;99.90
27697;DHT22;15105;56.514;21.002;2022-07-04T13:12:44;24.60;99.90
27697;DHT22;15105;56.514;21.002;2022-07-04T13:15:14;24.60;99.90
27697;DHT22;15105;56.514;21.002;2022-07-04T13:17:41;24.70;99.90
27697;DHT22;15105;56.514;21.002;2022-07-04T13:20:09;24.80;99.90
27697;DHT22;15105;56.514;21.002;2022-07-04T13:22:36;24.80;99.90
27697;DHT22;15105;56.514;21.002;2022-07-04T13:25:08;24.80;99.90
27697;DHT22;15105;56.514;21.002;2022-07-04T13:27:37;24.90;99.90
27697;DHT22;15105;56.514;21.002;2022-07-04T13:30:08;24.80;99.90
27697;DHT22;15105;56.514;21.002;2022-07-04T13:32:35;24.70;99.90
27697;DHT22;15105;56.514;21.002;2022-07-04T13:35:03;24.60;99.90
27697;DHT22;15105;56.514;21.002;2022-07-04T13:37:34;24.40;99.90
27697;DHT22;15105;56.514;21.002;2022-07-04T13:40:01;24.30;99.90
27697;DHT22;15105;56.514;21.002;2022-07-04T13:42:28;24.30;99.90
27697;DHT22;15105;56.514;21.002;2022-07-04T13:45:13;24.50;99.90
27697;DHT22;15105;56.514;21.002;2022-07-04T13:47:42;24.50;99.90
27697;DHT22;15105;56.514;21.002;2022-07-04T13:50:09;24.40;99.90
27697;DHT22;15105;56.514;21.002;2022-07-04T13:52:36;24.40;99.90
27697;DHT22;15105;56.514;21.002;2022-07-04T13:55:04;24.50;99.90
27697;DHT22;15105;56.514;21.002;2022-07-04T13:57:31;24.60;99.90
27697;DHT22;15105;56.514;21.002;2022-07-04T13:59:58;24.70;99.90
27697;DHT22;15105;56.514;21.002;2022-07-04T14:02:25;24.60;99.90
27697;DHT22;15105;56.514;21.002;2022-07-04T14:04:53;24.60;99.90
27697;DHT22;15105;56.514;21.002;2022-07-04T14:07:20;24.40;99.90
27697;DHT22;15105;56.514;21.002;2022-07-04T14:09:47;24.10;99.90
27697;DHT22;15105;56.514;21.002;2022-07-04T14:12:14;24.00;99.90
27697;DHT22;15105;56.514;21.002;2022-07-04T14:14:43;23.90;99.90
27697;DHT22;15105;56.514;21.002;2022-07-04T14:17:10;23.90;99.90
27697;DHT22;15105;56.514;21.002;2022-07-04T14:19:57;23.80;99.90
27697;DHT22;15105;56.514;21.002;2022-07-04T14:22:25;23.60;99.90
27697;DHT22;15105;56.514;21.002;2022-07-04T14:24:52;23.60;99.90
27697;DHT22;15105;56.514;21.002;2022-07-04T14:27:19;23.60;99.90
27697;DHT22;15105;56.514;21.002;2022-07-04T14:29:46;23.70;99.90
27697;DHT22;15105;56.514;21.002;2022-07-04T14:32:13;23.70;99.90
27697;DHT22;15105;56.514;21.002;2022-07-04T14:34:40;23.70;99.90
27697;DHT22;15105;56.514;21.002;2022-07-04T14:37:09;23.80;99.90
27697;DHT22;15105;56.514;21.002;2022-07-04T14:39:36;23.70;99.90
27697;DHT22;15105;56.514;21.002;2022-07-04T14:42:03;23.70;99.90
27697;DHT22;15105;56.514;21.002;2022-07-04T14:44:38;23.80;99.90
27697;DHT22;15105;56.514;21.002;2022-07-04T14:47:09;23.70;99.90
27697;DHT22;15105;56.514;21.002;2022-07-04T14:49:38;23.70;99.90
27697;DHT22;15105;56.514;21.002;2022-07-04T14:52:09;23.60;99.90
27697;DHT22;15105;56.514;21.002;2022-07-04T14:54:36;23.50;99.90
27697;DHT22;15105;56.514;21.002;2022-07-04T14:57:03;23.50;99.90
27697;DHT22;15105;56.514;21.002;2022-07-04T14:59:39;23.60;99.90
27697;DHT22;15105;56.514;21.002;2022-07-04T15:02:10;23.40;99.90
27697;DHT22;15105;56.514;21.002;2022-07-04T15:04:37;23.30;99.90
27697;DHT22;15105;56.514;21.002;2022-07-04T15:07:04;23.10;99.90
27697;DHT22;15105;56.514;21.002;2022-07-04T15:09:35;23.10;99.90
27697;DHT22;15105;56.514;21.002;2022-07-04T15:12:02;23.10;99.90
27697;DHT22;15105;56.514;21.002;2022-07-04T15:14:29;23.20;99.90
27697;DHT22;15105;56.514;21.002;2022-07-04T15:16:56;23.30;99.90
27697;DHT22;15105;56.514;21.002;2022-07-04T15:19:23;23.40;99.90
27697;DHT22;15105;56.514;21.002;2022-07-04T15:21:50;23.40;99.90
27697;DHT22;15105;56.514;21.002;2022-07-04T15:24:35;23.50;99.90
27697;DHT22;15105;56.514;21.002;2022-07-04T15:27:02;23.40;99.90
27697;DHT22;15105;56.514;21.002;2022-07-04T15:29:36;23.30;99.90
27697;DHT22;15105;56.514;21.002;2022-07-04T15:32:03;23.30;99.90
27697;DHT22;15105;56.514;21.002;2022-07-04T15:34:36;23.20;99.90
27697;DHT22;15105;56.514;21.002;2022-07-04T15:37:15;23.10;99.90
27697;DHT22;15105;56.514;21.002;2022-07-04T15:39:43;23.00;99.90
27697;DHT22;15105;56.514;21.002;2022-07-04T15:42:10;23.00;99.90
27697;DHT22;15105;56.514;21.002;2022-07-04T15:44:36;23.10;99.90
27697;DHT22;15105;56.514;21.002;2022-07-04T15:47:04;23.10;99.90
27697;DHT22;15105;56.514;21.002;2022-07-04T15:49:37;22.90;99.90
27697;DHT22;15105;56.514;21.002;2022-07-04T15:52:08;22.90;99.90
27697;DHT22;15105;56.514;21.002;2022-07-04T15:54:35;22.70;99.90
27697;DHT22;15105;56.514;21.002;2022-07-04T15:57:02;22.60;99.90
27697;DHT22;15105;56.514;21.002;2022-07-04T15:59:36;22.60;99.90
27697;DHT22;15105;56.514;21.002;2022-07-04T16:02:03;22.60;99.90
27697;DHT22;15105;56.514;21.002;2022-07-04T16:04:33;22.60;99.90
27697;DHT22;15105;56.514;21.002;2022-07-04T16:07:00;22.60;99.90